createdAt,value
2022-11-03T00:00:16.140Z,100622.58
2022-11-03T00:02:58.669Z,100627.55
2022-11-03T00:05:59.541Z,100627.81
2022-11-03T00:08:28.562Z,100626.91
2022-11-03T00:11:10.911Z,100624.98
2022-11-03T00:13:43.276Z,100626.81
2022-11-03T00:16:13.491Z,100628.12
2022-11-03T00:18:43.318Z,100634.67
2022-11-03T00:21:14.746Z,100634.74
2022-11-03T00:23:57.892Z,100636.95
2022-11-03T00:26:29.029Z,100644.90
2022-11-03T00:29:14.225Z,100645.35
2022-11-03T00:31:45.441Z,100642.30
2022-11-03T00:34:14.150Z,100637.70
2022-11-03T00:36:44.762Z,100638.33
2022-11-03T00:39:14.274Z,100643.10
2022-11-03T00:41:56.910Z,100640.94
2022-11-03T00:44:39.285Z,100642.61
2022-11-03T00:47:08.846Z,100642.40
2022-11-03T00:49:51.114Z,100653.10
2022-11-03T00:52:20.429Z,100650.58
2022-11-03T00:55:02.871Z,100653.30
2022-11-03T00:57:46.138Z,100654.61
2022-11-03T01:00:28.485Z,100655.20
2022-11-03T01:02:57.866Z,100657.01
2022-11-03T01:06:03.924Z,100659.15
2022-11-03T01:08:34.490Z,100657.33
2022-11-03T01:11:30.708Z,100658.77
2022-11-03T01:14:15.524Z,100658.85
2022-11-03T01:16:58.012Z,100668.30
2022-11-03T01:19:27.551Z,100666.44
2022-11-03T01:22:11.105Z,100665.80
2022-11-03T01:24:42.353Z,100669.39
2022-11-03T01:27:25.174Z,100672.06
2022-11-03T01:29:54.176Z,100673.02
2022-11-03T01:32:36.595Z,100675.30
2022-11-03T01:35:06.101Z,100673.08
2022-11-03T01:37:48.465Z,100675.42
2022-11-03T01:40:32.612Z,100673.60
2022-11-03T01:43:22.523Z,100667.30
2022-11-03T01:45:58.790Z,100668.76
2022-11-03T01:48:27.950Z,100665.54
2022-11-03T01:50:57.080Z,100665.10
2022-11-03T01:53:28.195Z,100663.77
2022-11-03T01:55:58.186Z,100669.89
2022-11-03T01:58:43.066Z,100671.36
2022-11-03T02:01:13.075Z,100672.99
2022-11-03T02:03:50.429Z,100671.00
2022-11-03T02:06:26.021Z,100673.48
2022-11-03T02:09:05.440Z,100676.02
2022-11-03T02:11:55.278Z,100670.53
2022-11-03T02:14:24.367Z,100672.55
2022-11-03T02:17:12.896Z,100667.48
2022-11-03T02:19:50.729Z,100665.31
2022-11-03T02:23:12.646Z,100668.17
2022-11-03T02:25:48.018Z,100668.96
2022-11-03T02:28:32.724Z,100666.57
2022-11-03T02:31:42.812Z,100667.30
2022-11-03T02:34:23.950Z,100665.94
2022-11-03T02:37:14.920Z,100668.27
2022-11-03T02:39:58.441Z,100669.71
2022-11-03T02:42:28.373Z,100666.83
2022-11-03T02:45:17.293Z,100667.42
2022-11-03T02:47:49.596Z,100673.41
2022-11-03T02:50:20.852Z,100673.09
2022-11-03T02:52:53.092Z,100678.15
2022-11-03T02:55:40.870Z,100680.11
2022-11-03T02:58:26.894Z,100680.16
2022-11-03T03:01:02.695Z,100685.97
2022-11-03T03:03:59.887Z,100683.66
2022-11-03T03:07:05.273Z,100685.29
2022-11-03T03:10:01.354Z,100688.82
2022-11-03T03:12:51.515Z,100691.83
2022-11-03T03:15:26.713Z,100687.52
2022-11-03T03:18:17.746Z,100689.77
2022-11-03T03:20:55.692Z,100690.17
2022-11-03T03:23:34.350Z,100692.86
2022-11-03T03:26:31.690Z,100691.19
2022-11-03T03:29:07.981Z,100690.73
2022-11-03T03:31:58.815Z,100696.19
2022-11-03T03:34:35.250Z,100698.96
2022-11-03T03:37:07.457Z,100696.05
2022-11-03T03:39:54.842Z,100694.54
2022-11-03T03:42:40.744Z,100694.97
2022-11-03T03:45:26.351Z,100691.41
2022-11-03T03:47:57.763Z,100693.88
2022-11-03T03:50:31.931Z,100697.66
2022-11-03T03:53:03.019Z,100694.35
2022-11-03T03:55:44.450Z,100700.92
2022-11-03T03:58:15.768Z,100700.55
2022-11-03T04:00:58.453Z,100696.22
2022-11-03T04:03:29.545Z,100698.05
2022-11-03T04:05:58.735Z,100702.61
2022-11-03T04:08:27.723Z,100703.52
2022-11-03T04:11:15.152Z,100703.23
2022-11-03T04:14:15.963Z,100706.11
2022-11-03T04:17:17.171Z,100706.37
2022-11-03T04:20:05.318Z,100704.70
2022-11-03T04:22:47.650Z,100703.61
2022-11-03T04:25:30.295Z,100709.55
2022-11-03T04:27:59.491Z,100711.85
2022-11-03T04:30:28.690Z,100712.71
2022-11-03T04:32:57.930Z,100712.83
2022-11-03T04:35:28.452Z,100715.39
2022-11-03T04:38:14.414Z,100714.65
2022-11-03T04:40:58.790Z,100720.52
2022-11-03T04:43:36.461Z,100722.46
2022-11-03T04:46:29.994Z,100718.48
2022-11-03T04:49:01.450Z,100719.23
2022-11-03T04:51:44.624Z,100719.17
2022-11-03T04:54:27.387Z,100716.14
2022-11-03T04:56:57.386Z,100717.30
2022-11-03T04:59:26.411Z,100717.19
2022-11-03T05:01:56.193Z,100718.95
2022-11-03T05:04:25.871Z,100722.11
2022-11-03T05:06:55.113Z,100724.13
2022-11-03T05:09:29.645Z,100725.59
2022-11-03T05:11:59.925Z,100735.20
2022-11-03T05:14:32.808Z,100742.54
2022-11-03T05:17:03.551Z,100742.24
2022-11-03T05:19:46.452Z,100743.39
2022-11-03T05:22:22.787Z,100736.36
2022-11-03T05:25:43.670Z,100734.03
2022-11-03T05:28:42.136Z,100734.63
2022-11-03T05:31:37.800Z,100733.70
2022-11-03T05:34:43.788Z,100730.80
2022-11-03T05:37:35.249Z,100731.70
2022-11-03T05:40:25.724Z,100733.28
2022-11-03T05:42:59.679Z,100737.63
2022-11-03T05:45:37.055Z,100734.69
2022-11-03T05:48:37.134Z,100736.95
2022-11-03T05:51:23.825Z,100737.35
2022-11-03T05:54:18.571Z,100739.10
2022-11-03T05:57:02.186Z,100740.31
2022-11-03T05:59:31.495Z,100745.20
2022-11-03T06:02:42.433Z,100740.54
2022-11-03T06:05:18.939Z,100747.48
2022-11-03T06:07:53.553Z,100753.79
2022-11-03T06:10:46.214Z,100753.85
2022-11-03T06:13:20.647Z,100754.77
2022-11-03T06:16:25.340Z,100752.89
2022-11-03T06:18:54.760Z,100755.67
2022-11-03T06:21:26.948Z,100756.38
2022-11-03T06:23:56.163Z,100756.91
2022-11-03T06:26:29.030Z,100755.66
2022-11-03T06:29:00.474Z,100756.14
2022-11-03T06:31:33.828Z,100755.07
2022-11-03T06:34:23.037Z,100750.14
2022-11-03T06:37:20.665Z,100755.25
2022-11-03T06:39:50.176Z,100756.91
2022-11-03T06:42:36.006Z,100756.86
2022-11-03T06:45:25.486Z,100756.73
2022-11-03T06:47:55.500Z,100755.21
2022-11-03T06:50:33.645Z,100759.27
2022-11-03T06:53:24.006Z,100759.38
2022-11-03T06:56:16.670Z,100765.52
2022-11-03T06:58:59.112Z,100765.03
2022-11-03T07:01:42.525Z,100765.07
2022-11-03T07:04:22.067Z,100772.45
2022-11-03T07:07:05.060Z,100775.74
2022-11-03T07:09:34.277Z,100781.00
2022-11-03T07:12:03.684Z,100783.96
2022-11-03T07:14:34.598Z,100782.61
2022-11-03T07:17:14.902Z,100786.09
2022-11-03T07:19:46.227Z,100784.75
2022-11-03T07:22:17.701Z,100782.88
2022-11-03T07:24:48.984Z,100783.05
2022-11-03T07:27:30.814Z,100781.69
2022-11-03T07:30:27.573Z,100777.64
2022-11-03T07:33:27.992Z,100774.13
2022-11-03T07:36:20.993Z,100772.11
2022-11-03T07:38:57.722Z,100765.58
2022-11-03T07:41:34.568Z,100767.52
2022-11-03T07:44:12.631Z,100767.34
2022-11-03T07:46:46.474Z,100771.33
2022-11-03T07:49:29.517Z,100767.30
2022-11-03T07:52:01.610Z,100761.48
2022-11-03T07:54:35.423Z,100761.52
2022-11-03T07:57:23.326Z,100756.63
2022-11-03T08:00:07.079Z,100753.66
2022-11-03T08:02:57.433Z,100750.21
2022-11-03T08:05:28.302Z,100743.30
2022-11-03T08:08:01.221Z,100742.80
2022-11-03T08:10:33.822Z,100739.16
2022-11-03T08:13:05.954Z,100736.68
2022-11-03T08:15:51.515Z,100732.48
2022-11-03T08:18:23.634Z,100733.05
2022-11-03T08:20:56.849Z,100730.30
2022-11-03T08:23:33.281Z,100732.65
2022-11-03T08:26:07.718Z,100734.13
2022-11-03T08:28:44.796Z,100731.04
2022-11-03T08:31:20.464Z,100733.63
2022-11-03T08:33:58.127Z,100734.36
2022-11-03T08:36:33.742Z,100730.48
2022-11-03T08:39:12.222Z,100730.67
2022-11-03T08:41:46.796Z,100730.98
2022-11-03T08:44:20.141Z,100731.45
2022-11-03T08:46:55.208Z,100727.58
2022-11-03T08:49:30.512Z,100726.68
2022-11-03T08:52:06.031Z,100720.39
2022-11-03T08:54:38.018Z,100721.41
2022-11-03T08:57:07.802Z,100719.41
2022-11-03T08:59:36.644Z,100720.41
2022-11-03T09:02:05.915Z,100717.91
2022-11-03T09:04:34.889Z,100717.36
2022-11-03T09:07:04.153Z,100717.31
2022-11-03T09:12:36.743Z,100718.52
2022-11-03T09:15:19.425Z,100717.47
2022-11-03T09:17:47.991Z,100717.95
2022-11-03T09:20:17.589Z,100717.19
2022-11-03T09:22:46.457Z,100715.91
2022-11-03T09:25:15.624Z,100714.09
2022-11-03T09:27:44.646Z,100713.46
2022-11-03T09:30:14.466Z,100708.58
2022-11-03T09:32:44.159Z,100712.30
2022-11-03T09:35:14.913Z,100714.23
2022-11-03T09:37:44.717Z,100719.86
2022-11-03T09:40:16.613Z,100719.98
2022-11-03T09:42:45.813Z,100717.30
2022-11-03T09:45:14.940Z,100716.31
2022-11-03T09:47:57.447Z,100719.09
2022-11-03T09:53:13.519Z,100716.48
2022-11-03T09:55:56.521Z,100717.61
2022-11-03T09:58:27.037Z,100713.92
2022-11-03T10:01:11.994Z,100709.98
2022-11-03T10:03:59.437Z,100707.41
2022-11-03T10:06:41.971Z,100706.52
2022-11-03T10:09:18.294Z,100702.52
2022-11-03T10:11:48.123Z,100700.06
2022-11-03T10:14:19.470Z,100699.15
2022-11-03T10:17:02.895Z,100704.47
2022-11-03T10:19:31.989Z,100705.14
2022-11-03T10:22:01.008Z,100703.26
2022-11-03T10:24:30.403Z,100699.83
2022-11-03T10:26:59.477Z,100699.84
2022-11-03T10:29:29.152Z,100696.19
2022-11-03T10:31:59.437Z,100695.34
2022-11-03T10:34:37.037Z,100695.63
2022-11-03T10:37:26.830Z,100691.09
2022-11-03T10:39:57.112Z,100692.17
2022-11-03T10:42:39.873Z,100692.83
2022-11-03T10:45:21.146Z,100690.35
2022-11-03T10:48:02.507Z,100690.16
2022-11-03T10:50:31.459Z,100685.56
2022-11-03T10:53:00.273Z,100685.60
2022-11-03T10:55:29.521Z,100683.27
2022-11-03T10:57:59.079Z,100684.21
2022-11-03T11:00:42.950Z,100681.84
2022-11-03T11:03:16.386Z,100680.02
2022-11-03T11:06:02.569Z,100673.64
2022-11-03T11:08:45.221Z,100668.44
2022-11-03T11:11:17.867Z,100669.80
2022-11-03T11:13:47.002Z,100666.67
2022-11-03T11:16:54.981Z,100662.41
2022-11-03T11:20:23.329Z,100657.41
2022-11-03T11:23:35.062Z,100656.81
2022-11-03T11:26:39.028Z,100649.17
2022-11-03T11:29:16.099Z,100644.95
2022-11-03T11:31:46.309Z,100644.79
2022-11-03T11:34:35.300Z,100643.64
2022-11-03T11:37:17.899Z,100638.83
2022-11-03T11:39:47.170Z,100640.73
2022-11-03T11:42:18.354Z,100630.89
2022-11-03T11:45:03.661Z,100630.95
2022-11-03T11:47:49.759Z,100622.56
2022-11-03T11:50:24.726Z,100621.88
2022-11-03T11:53:09.299Z,100616.45
2022-11-03T11:55:46.439Z,100611.27
2022-11-03T11:58:32.378Z,100606.80
2022-11-03T12:01:34.715Z,100604.27
2022-11-03T12:04:32.028Z,100596.66
2022-11-03T12:07:14.631Z,100595.50
2022-11-03T12:10:15.277Z,100594.40
2022-11-03T12:12:44.981Z,100589.67
2022-11-03T12:15:56.805Z,100587.09
2022-11-03T12:18:50.245Z,100582.22
2022-11-03T12:21:50.177Z,100570.45
2022-11-03T12:24:31.759Z,100570.98
2022-11-03T12:27:01.612Z,100571.81
2022-11-03T12:29:30.579Z,100573.74
2022-11-03T12:31:59.878Z,100573.27
2022-11-03T12:34:42.590Z,100574.52
2022-11-03T12:37:25.420Z,100572.29
2022-11-03T12:39:54.368Z,100569.99
2022-11-03T12:42:25.585Z,100571.37
2022-11-03T12:45:09.134Z,100567.32
2022-11-03T12:47:38.358Z,100568.58
2022-11-03T12:50:07.886Z,100563.40
2022-11-03T12:52:36.822Z,100557.13
2022-11-03T12:55:06.348Z,100559.08
2022-11-03T12:57:35.154Z,100557.77
2022-11-03T13:00:06.933Z,100555.27
2022-11-03T13:02:49.282Z,100548.98
2022-11-03T13:05:31.698Z,100547.61
2022-11-03T13:08:01.295Z,100545.30
2022-11-03T13:10:44.011Z,100539.23
2022-11-03T13:13:13.575Z,100533.05
2022-11-03T13:15:56.278Z,100531.52
2022-11-03T13:18:39.067Z,100531.18
2022-11-03T13:21:21.837Z,100530.59
2022-11-03T13:24:04.724Z,100533.70
2022-11-03T13:26:47.550Z,100530.95
2022-11-03T13:29:16.480Z,100524.61
2022-11-03T13:31:45.273Z,100521.16
2022-11-03T13:34:14.416Z,100522.02
2022-11-03T13:36:43.336Z,100521.94
2022-11-03T13:39:13.438Z,100524.46
2022-11-03T13:41:55.861Z,100517.53
2022-11-03T13:44:24.612Z,100518.52
2022-11-03T13:46:53.413Z,100514.73
2022-11-03T13:52:11.845Z,100517.62
2022-11-03T14:00:46.539Z,100507.02
2022-11-03T14:06:04.257Z,100501.86
2022-11-03T14:08:47.140Z,100500.35
2022-11-03T14:11:34.786Z,100498.64
2022-11-03T14:14:03.682Z,100491.79
2022-11-03T14:16:32.312Z,100486.65
2022-11-03T14:19:01.550Z,100483.77
2022-11-03T14:21:31.460Z,100478.88
2022-11-03T14:24:13.725Z,100481.13
2022-11-03T14:26:43.364Z,100478.94
2022-11-03T14:29:12.259Z,100476.50
2022-11-03T14:31:41.100Z,100474.55
2022-11-03T14:34:10.016Z,100474.73
2022-11-03T14:36:39.113Z,100473.35
2022-11-03T14:39:08.044Z,100469.69
2022-11-03T14:41:55.146Z,100463.15
2022-11-03T14:44:24.018Z,100455.61
2022-11-03T14:46:52.870Z,100449.95
2022-11-03T14:49:21.510Z,100441.09
2022-11-03T14:51:50.906Z,100444.14
2022-11-03T14:54:19.995Z,100451.19
2022-11-03T14:57:02.899Z,100452.17
2022-11-03T14:59:48.007Z,100445.98
2022-11-03T15:02:34.753Z,100439.69
2022-11-03T15:05:35.941Z,100435.08
2022-11-03T15:08:05.168Z,100430.22
2022-11-03T15:10:34.462Z,100432.58
2022-11-03T15:13:03.457Z,100428.16
2022-11-03T15:15:32.533Z,100425.08
2022-11-03T15:18:05.053Z,100422.09
2022-11-03T15:20:48.125Z,100417.84
2022-11-03T15:26:20.028Z,100426.00
2022-11-03T15:29:02.149Z,100417.16
2022-11-03T15:31:31.105Z,100413.69
2022-11-03T15:34:01.845Z,100408.95
2022-11-03T15:36:46.581Z,100403.63
2022-11-03T15:39:16.634Z,100402.15
2022-11-03T15:41:45.326Z,100403.46
2022-11-03T15:44:14.569Z,100398.33
2022-11-03T15:46:43.836Z,100402.20
2022-11-03T15:49:12.587Z,100396.69
2022-11-03T15:51:41.604Z,100390.69
2022-11-03T15:54:10.502Z,100389.76
2022-11-03T15:56:39.934Z,100387.65
2022-11-03T15:59:08.761Z,100390.52
2022-11-03T16:01:37.705Z,100387.84
2022-11-03T16:04:07.388Z,100378.95
2022-11-03T16:09:26.086Z,100373.19
2022-11-03T16:11:55.131Z,100368.61
2022-11-03T16:14:24.478Z,100360.04
2022-11-03T16:16:53.792Z,100354.61
2022-11-03T16:19:22.654Z,100354.96
2022-11-03T16:22:05.056Z,100354.49
2022-11-03T16:24:35.389Z,100356.75
2022-11-03T16:27:04.983Z,100352.98
2022-11-03T16:29:34.211Z,100356.30
2022-11-03T16:32:03.533Z,100350.39
2022-11-03T16:34:32.553Z,100355.12
2022-11-03T16:37:15.830Z,100353.29
2022-11-03T16:39:44.628Z,100354.14
2022-11-03T16:42:13.479Z,100352.98
2022-11-03T16:44:42.355Z,100351.83
2022-11-03T16:47:27.581Z,100355.35
2022-11-03T16:50:10.101Z,100353.76
2022-11-03T16:52:52.957Z,100351.61
2022-11-03T16:55:35.302Z,100354.56
2022-11-03T16:58:04.142Z,100351.68
2022-11-03T17:00:46.385Z,100350.75
2022-11-03T17:03:15.504Z,100348.90
2022-11-03T17:05:58.232Z,100346.18
2022-11-03T17:08:51.129Z,100340.49
2022-11-03T17:11:39.641Z,100341.48
2022-11-03T17:14:14.020Z,100341.58
2022-11-03T17:16:45.773Z,100343.19
2022-11-03T17:19:16.666Z,100344.94
2022-11-03T17:21:46.461Z,100341.21
2022-11-03T17:24:15.779Z,100342.60
2022-11-03T17:27:02.503Z,100338.71
2022-11-03T17:29:38.267Z,100336.77
2022-11-03T17:32:12.635Z,100334.11
2022-11-03T17:34:41.580Z,100334.05
2022-11-03T17:37:11.132Z,100331.61
2022-11-03T17:39:42.079Z,100332.05
2022-11-03T17:42:26.628Z,100326.22
2022-11-03T17:44:57.664Z,100326.12
2022-11-03T17:47:40.347Z,100321.51
2022-11-03T17:50:15.327Z,100317.97
2022-11-03T17:52:46.947Z,100316.40
2022-11-03T17:55:36.014Z,100311.81
2022-11-03T17:58:18.483Z,100308.54
2022-11-03T18:00:47.864Z,100302.27
2022-11-03T18:03:16.960Z,100301.86
2022-11-03T18:05:45.880Z,100297.91
2022-11-03T18:08:17.092Z,100291.22
2022-11-03T18:10:49.222Z,100286.13
2022-11-03T18:13:34.010Z,100282.64
2022-11-03T18:16:13.611Z,100277.73
2022-11-03T18:18:45.490Z,100268.31
2022-11-03T18:21:17.803Z,100264.93
2022-11-03T18:23:47.196Z,100263.58
2022-11-03T18:26:29.557Z,100261.91
2022-11-03T18:28:58.778Z,100261.39
2022-11-03T18:31:43.663Z,100258.64
2022-11-03T18:34:19.329Z,100260.27
2022-11-03T18:36:49.495Z,100258.49
2022-11-03T18:39:25.918Z,100261.90
2022-11-03T18:41:55.301Z,100260.61
2022-11-03T18:44:29.358Z,100257.98
2022-11-03T18:46:58.993Z,100257.23
2022-11-03T18:49:27.788Z,100252.10
2022-11-03T18:52:18.104Z,100245.46
2022-11-03T18:55:00.759Z,100236.66
2022-11-03T18:57:29.932Z,100233.29
2022-11-03T19:00:21.903Z,100230.65
2022-11-03T19:02:50.884Z,100230.13
2022-11-03T19:05:20.159Z,100223.25
2022-11-03T19:07:50.615Z,100218.55
2022-11-03T19:10:22.493Z,100215.92
2022-11-03T19:12:51.561Z,100218.48
2022-11-03T19:15:23.248Z,100216.34
2022-11-03T19:18:06.532Z,100215.48
2022-11-03T19:20:35.269Z,100207.02
2022-11-03T19:23:04.715Z,100201.52
2022-11-03T19:25:50.221Z,100193.42
2022-11-03T19:28:21.544Z,100188.31
2022-11-03T19:30:51.868Z,100190.17
2022-11-03T19:33:27.616Z,100185.48
2022-11-03T19:35:58.038Z,100189.80
2022-11-03T19:38:27.156Z,100192.73
2022-11-03T19:41:14.359Z,100189.98
2022-11-03T19:43:56.969Z,100188.64
2022-11-03T19:46:26.267Z,100188.34
2022-11-03T19:49:14.303Z,100189.65
2022-11-03T19:51:43.407Z,100187.75
2022-11-03T19:54:19.321Z,100185.00
2022-11-03T19:57:01.870Z,100182.16
2022-11-03T19:59:30.605Z,100179.41
2022-11-03T20:01:59.092Z,100178.77
2022-11-03T20:04:51.507Z,100175.48
2022-11-03T20:07:20.331Z,100174.03
2022-11-03T20:10:03.029Z,100170.92
2022-11-03T20:12:31.782Z,100165.95
2022-11-03T20:15:00.381Z,100164.29
2022-11-03T20:17:44.159Z,100161.93
2022-11-03T20:20:18.320Z,100159.96
2022-11-03T20:22:52.358Z,100149.20
2022-11-03T20:25:24.624Z,100141.49
2022-11-03T20:27:55.723Z,100141.39
2022-11-03T20:30:27.121Z,100139.05
2022-11-03T20:33:14.635Z,100140.17
2022-11-03T20:35:44.494Z,100137.26
2022-11-03T20:38:27.550Z,100137.99
2022-11-03T20:41:00.590Z,100132.82
2022-11-03T20:43:44.843Z,100130.57
2022-11-03T20:46:33.784Z,100125.42
2022-11-03T20:49:15.893Z,100120.27
2022-11-03T20:51:46.789Z,100117.34
2022-11-03T20:54:21.952Z,100115.64
2022-11-03T20:56:51.050Z,100105.44
2022-11-03T20:59:24.743Z,100098.20
2022-11-03T21:01:54.548Z,100089.02
2022-11-03T21:04:23.816Z,100082.94
2022-11-03T21:06:52.315Z,100075.59
2022-11-03T21:09:34.595Z,100069.89
2022-11-03T21:12:03.654Z,100068.52
2022-11-03T21:14:33.078Z,100072.15
2022-11-03T21:17:34.383Z,100063.14
2022-11-03T21:20:04.555Z,100058.96
2022-11-03T21:22:55.145Z,100054.23
2022-11-03T21:25:24.817Z,100052.29
2022-11-03T21:27:55.052Z,100047.17
2022-11-03T21:30:24.394Z,100041.55
2022-11-03T21:32:53.086Z,100040.72
2022-11-03T21:35:22.535Z,100038.77
2022-11-03T21:37:51.663Z,100035.95
2022-11-03T21:40:20.326Z,100033.66
2022-11-03T21:43:08.051Z,100039.04
2022-11-03T21:45:36.602Z,100033.94
2022-11-03T21:48:24.586Z,100040.05
2022-11-03T21:50:53.376Z,100039.73
2022-11-03T21:53:22.141Z,100035.63
2022-11-03T21:55:52.332Z,100029.42
2022-11-03T21:58:25.725Z,100026.00
2022-11-03T22:01:01.732Z,100023.68
2022-11-03T22:03:31.917Z,100020.23
2022-11-03T22:06:02.055Z,100013.86
2022-11-03T22:08:30.917Z,100010.61
2022-11-03T22:11:19.933Z,100004.04
2022-11-03T22:13:56.477Z,99994.51
2022-11-03T22:16:38.634Z,99992.67
2022-11-03T22:19:34.742Z,99986.80
2022-11-03T22:22:30.879Z,99983.45
2022-11-03T22:25:19.329Z,99973.80
2022-11-03T22:28:01.594Z,99971.70
2022-11-03T22:30:48.755Z,99968.63
2022-11-03T22:33:31.451Z,99964.51
2022-11-03T22:36:21.945Z,99963.07
2022-11-03T22:39:10.084Z,99958.97
2022-11-03T22:42:11.388Z,99955.42
2022-11-03T22:44:59.032Z,99952.45
2022-11-03T22:47:28.286Z,99952.42
2022-11-03T22:50:10.565Z,99948.31
2022-11-03T22:52:53.313Z,99946.60
2022-11-03T22:55:22.262Z,99937.85
2022-11-03T22:58:04.533Z,99940.04
2022-11-03T23:00:33.716Z,99934.81
2022-11-03T23:03:02.702Z,99928.77
2022-11-03T23:05:33.654Z,99924.03
2022-11-03T23:08:03.356Z,99916.70
2022-11-03T23:10:32.269Z,99910.77
2022-11-03T23:13:15.072Z,99905.95
2022-11-03T23:15:44.017Z,99909.36
2022-11-03T23:18:31.689Z,99903.27
2022-11-03T23:21:12.966Z,99898.96
2022-11-03T23:24:14.793Z,99895.59
2022-11-03T23:26:59.573Z,99891.30
2022-11-03T23:29:29.762Z,99886.67
2022-11-03T23:32:00.159Z,99888.39
2022-11-03T23:34:42.443Z,99886.79
2022-11-03T23:37:25.174Z,99885.89
2022-11-03T23:39:53.874Z,99884.31
2022-11-03T23:42:22.978Z,99883.84
2022-11-03T23:45:10.078Z,99882.85
2022-11-03T23:48:13.089Z,99883.59
2022-11-03T23:50:43.982Z,99882.88
2022-11-03T23:53:12.784Z,99875.77
2022-11-03T23:56:02.003Z,99865.89
2022-11-03T23:58:44.768Z,99857.91
